Time;durP1;ratioP1;P1;durP2;ratioP2;P2;SDS_P1;SDS_P2;PMS_P1;PMS_P2;Temp;Humidity;BMP_temperature;BMP_pressure;BME280_temperature;BME280_humidity;BME280_pressure;Samples;Min_cycle;Max_cycle;Signal;HPM_P1;HPM_P2
2021/03/25 00:28:34;;;;;;;68.00;46.90;;;;;;;;;;4987349;28;20460;-81
2021/03/25 00:31:00;;;;;;;56.42;44.17;;;;;;;;;;4984935;28;20819;-84
2021/03/25 00:33:26;;;;;;;67.80;47.80;;;;;;;;;;4985692;28;20180;-80
2021/03/25 00:35:56;;;;;;;59.60;47.53;;;;;;;;;;4992290;28;20412;-83
2021/03/25 00:38:22;;;;;;;63.83;45.00;;;;;;;;;;4971380;29;20449;-81
2021/03/25 00:40:57;;;;;;;60.10;41.27;;;;;;;;;;4972751;29;20184;-83
2021/03/25 00:43:23;;;;;;;68.17;48.43;;;;;;;;;;4967648;29;20385;-83
2021/03/25 00:45:53;;;;;;;63.42;45.35;;;;;;;;;;4986766;28;20425;-82
2021/03/25 00:48:20;;;;;;;58.27;44.70;;;;;;;;;;4975307;28;20197;-83
2021/03/25 00:50:48;;;;;;;59.55;45.47;;;;;;;;;;4973653;28;20429;-83
2021/03/25 00:53:17;;;;;;;55.43;43.60;;;;;;;;;;4967237;29;20180;-83
2021/03/25 00:55:43;;;;;;;58.13;43.40;;;;;;;;;;4965047;29;20414;-83
2021/03/25 00:58:10;;;;;;;64.50;48.67;;;;;;;;;;4943729;29;20441;-82
2021/03/25 01:00:37;;;;;;;66.70;45.10;;;;;;;;;;4960147;29;20264;-82
2021/03/25 01:03:03;;;;;;;62.80;44.53;;;;;;;;;;4960088;29;20530;-82
2021/03/25 01:05:30;;;;;;;62.72;45.88;;;;;;;;;;4961630;29;20467;-81
2021/03/25 01:07:56;;;;;;;66.67;46.33;;;;;;;;;;4962050;28;20275;-81
2021/03/25 01:10:24;;;;;;;74.75;48.05;;;;;;;;;;4962988;29;20425;-82
2021/03/25 01:12:51;;;;;;;60.78;46.25;;;;;;;;;;4961010;29;20219;-82
2021/03/25 01:15:17;;;;;;;68.90;47.55;;;;;;;;;;4962530;29;20162;-81
2021/03/25 01:17:54;;;;;;;70.80;47.28;;;;;;;;;;4946067;29;20204;-81
2021/03/25 01:20:24;;;;;;;63.20;46.90;;;;;;;;;;4950538;29;20170;-81
2021/03/25 01:22:51;;;;;;;68.50;46.70;;;;;;;;;;4966596;29;20170;-82
2021/03/25 01:25:18;;;;;;;74.00;47.97;;;;;;;;;;4965289;29;20256;-86
2021/03/25 01:27:44;;;;;;;63.95;47.92;;;;;;;;;;4967436;28;20194;-85
2021/03/25 01:30:11;;;;;;;85.40;52.45;;;;;;;;;;4967975;29;20206;-83
2021/03/25 01:32:37;;;;;;;70.50;51.00;;;;;;;;;;4965836;29;20166;-82
2021/03/25 01:35:05;;;;;;;71.78;46.50;;;;;;;;;;4966596;29;20181;-82
2021/03/25 01:37:32;;;;;;;73.85;53.63;;;;;;;;;;4967274;28;20194;-82
2021/03/25 01:40:08;;;;;;;70.95;48.80;;;;;;;;;;4966774;29;20169;-81
2021/03/25 01:42:35;;;;;;;69.90;49.58;;;;;;;;;;4965424;29;20178;-82
2021/03/25 01:45:22;;;;;;;61.00;46.47;;;;;;;;;;4964394;28;20178;-80
2021/03/25 01:47:49;;;;;;;71.03;49.13;;;;;;;;;;4964814;29;20202;-81
2021/03/25 01:50:16;;;;;;;75.80;51.97;;;;;;;;;;4966663;29;20173;-81
2021/03/25 01:52:48;;;;;;;70.40;49.53;;;;;;;;;;4949307;29;20186;-80
2021/03/25 01:55:27;;;;;;;64.40;45.72;;;;;;;;;;4966455;29;20193;-82
2021/03/25 01:58:03;;;;;;;73.30;48.97;;;;;;;;;;4966042;29;20197;-81
2021/03/25 02:00:39;;;;;;;73.13;50.05;;;;;;;;;;4965553;29;20181;-81
2021/03/25 02:03:11;;;;;;;65.78;47.67;;;;;;;;;;4974641;29;20154;-82
2021/03/25 02:05:53;;;;;;;69.03;47.95;;;;;;;;;;4960642;29;20217;-81
2021/03/25 02:08:34;;;;;;;70.15;49.85;;;;;;;;;;4954350;29;20206;-81
2021/03/25 02:11:16;;;;;;;64.20;45.97;;;;;;;;;;4971753;29;20189;-82
2021/03/25 02:13:47;;;;;;;73.72;48.80;;;;;;;;;;4972405;29;20147;-81
2021/03/25 02:16:16;;;;;;;62.83;43.67;;;;;;;;;;4973441;28;20167;-81
2021/03/25 02:19:11;;;;;;;73.95;47.10;;;;;;;;;;4975064;28;20177;-80
2021/03/25 02:21:43;;;;;;;67.88;48.13;;;;;;;;;;4974872;29;20161;-80
2021/03/25 02:24:29;;;;;;;68.22;50.67;;;;;;;;;;4968400;29;20166;-82
2021/03/25 02:27:23;;;;;;;67.25;45.97;;;;;;;;;;4964228;28;20212;-82
2021/03/25 02:29:52;;;;;;;67.97;47.85;;;;;;;;;;4965892;29;20173;-82
2021/03/25 02:32:30;;;;;;;57.63;42.95;;;;;;;;;;4957620;29;20181;-82
2021/03/25 02:35:07;;;;;;;57.42;47.60;;;;;;;;;;4965043;29;20166;-82
2021/03/25 02:37:38;;;;;;;64.93;46.17;;;;;;;;;;4966490;28;20197;-81
2021/03/25 02:40:17;;;;;;;67.22;47.83;;;;;;;;;;4965147;29;20194;-82
2021/03/25 02:43:06;;;;;;;71.60;46.70;;;;;;;;;;4964133;29;20178;-82
2021/03/25 02:45:33;;;;;;;63.40;45.47;;;;;;;;;;4963863;28;20177;-82
2021/03/25 02:48:11;;;;;;;66.15;44.83;;;;;;;;;;4964518;28;20198;-82
2021/03/25 02:50:41;;;;;;;66.80;46.25;;;;;;;;;;4965022;29;20233;-82
2021/03/25 02:53:27;;;;;;;68.35;46.70;;;;;;;;;;4964516;29;20689;-84
2021/03/25 02:55:55;;;;;;;71.65;47.30;;;;;;;;;;4963797;29;20269;-82
2021/03/25 02:58:29;;;;;;;61.83;42.83;;;;;;;;;;4965085;29;20739;-83
2021/03/25 03:01:04;;;;;;;59.08;45.17;;;;;;;;;;4965873;29;20170;-83
2021/03/25 03:03:35;;;;;;;75.38;48.00;;;;;;;;;;4964651;29;20186;-83
2021/03/25 03:06:05;;;;;;;69.72;47.47;;;;;;;;;;4971329;28;20263;-83
2021/03/25 03:08:40;;;;;;;67.97;45.60;;;;;;;;;;4974891;29;20185;-81
2021/03/25 03:11:09;;;;;;;72.32;46.60;;;;;;;;;;4959245;29;20270;-82
2021/03/25 03:13:37;;;;;;;68.47;45.67;;;;;;;;;;4968798;29;20170;-83
2021/03/25 03:16:06;;;;;;;60.78;45.33;;;;;;;;;;4964634;28;20198;-82
2021/03/25 03:18:42;;;;;;;63.22;44.47;;;;;;;;;;4967893;29;20170;-82
2021/03/25 03:21:19;;;;;;;69.50;46.45;;;;;;;;;;4964951;29;20185;-82
2021/03/25 03:23:56;;;;;;;62.78;45.33;;;;;;;;;;4963659;29;20181;-82
2021/03/25 03:26:32;;;;;;;68.32;48.80;;;;;;;;;;4963079;29;20217;-83
2021/03/25 03:29:05;;;;;;;69.95;48.50;;;;;;;;;;4962655;28;20162;-82
2021/03/25 03:31:38;;;;;;;65.47;45.40;;;;;;;;;;4963036;28;20497;-82
2021/03/25 03:34:17;;;;;;;67.82;47.30;;;;;;;;;;4962952;29;20174;-82
2021/03/25 03:36:45;;;;;;;65.55;49.78;;;;;;;;;;4966387;28;20532;-82
2021/03/25 03:39:14;;;;;;;78.93;47.08;;;;;;;;;;4963661;28;20197;-82
2021/03/25 03:41:54;;;;;;;68.90;47.10;;;;;;;;;;4970976;29;20170;-82
2021/03/25 03:44:25;;;;;;;64.47;45.47;;;;;;;;;;4977844;28;20201;-82
2021/03/25 03:46:53;;;;;;;71.15;49.20;;;;;;;;;;4977810;29;20206;-82
2021/03/25 03:49:24;;;;;;;80.90;51.30;;;;;;;;;;4949835;29;20188;-82
2021/03/25 03:52:03;;;;;;;60.78;45.83;;;;;;;;;;4947156;29;20252;-82
2021/03/25 03:54:30;;;;;;;69.35;46.65;;;;;;;;;;4962680;29;20166;-82
2021/03/25 03:57:11;;;;;;;68.82;48.42;;;;;;;;;;4947276;29;20206;-82
2021/03/25 03:59:59;;;;;;;64.82;46.40;;;;;;;;;;4964599;29;20185;-82
2021/03/25 04:02:35;;;;;;;67.53;45.13;;;;;;;;;;4960645;29;20197;-82
2021/03/25 04:05:20;;;;;;;67.00;45.75;;;;;;;;;;4962919;29;20169;-82
2021/03/25 04:08:10;;;;;;;60.35;42.75;;;;;;;;;;4962715;29;20267;-82
2021/03/25 04:11:03;;;;;;;58.05;41.92;;;;;;;;;;4962905;28;20162;-82
2021/03/25 04:13:33;;;;;;;67.53;45.42;;;;;;;;;;4962925;29;20184;-82
2021/03/25 04:16:00;;;;;;;63.65;45.88;;;;;;;;;;4963078;28;20177;-82
2021/03/25 04:18:34;;;;;;;75.32;47.75;;;;;;;;;;4963866;29;20166;-82
2021/03/25 04:21:31;;;;;;;69.65;45.35;;;;;;;;;;4967465;29;20228;-82
2021/03/25 04:23:59;;;;;;;77.53;49.58;;;;;;;;;;4965048;29;20245;-82
2021/03/25 04:26:37;;;;;;;74.10;45.92;;;;;;;;;;4961805;28;20190;-81
2021/03/25 04:29:05;;;;;;;77.93;46.05;;;;;;;;;;4963307;29;20230;-82
2021/03/25 04:31:31;;;;;;;64.60;46.53;;;;;;;;;;4961720;28;20185;-82
2021/03/25 04:33:58;;;;;;;75.10;44.83;;;;;;;;;;4960702;28;20650;-82
2021/03/25 04:36:25;;;;;;;61.42;45.33;;;;;;;;;;4962398;28;20221;-81
2021/03/25 04:38:52;;;;;;;77.22;48.47;;;;;;;;;;4960752;29;20220;-82
2021/03/25 04:41:18;;;;;;;62.70;45.78;;;;;;;;;;4944993;28;20178;-82
2021/03/25 04:43:46;;;;;;;66.38;46.63;;;;;;;;;;4961874;29;20650;-82
2021/03/25 04:46:29;;;;;;;66.28;48.47;;;;;;;;;;4949064;28;20197;-82
2021/03/25 04:48:57;;;;;;;73.82;48.78;;;;;;;;;;4946263;29;20170;-82
2021/03/25 04:51:27;;;;;;;66.65;45.83;;;;;;;;;;4947089;29;20166;-82
2021/03/25 04:54:07;;;;;;;72.03;45.28;;;;;;;;;;4967671;29;20177;-82
2021/03/25 04:57:07;;;;;;;62.85;42.05;;;;;;;;;;4962338;29;20198;-81
2021/03/25 04:59:41;;;;;;;68.50;42.28;;;;;;;;;;4944056;29;20182;-82
2021/03/25 05:02:07;;;;;;;66.93;47.03;;;;;;;;;;4959849;28;20236;-82
2021/03/25 05:04:39;;;;;;;77.60;49.53;;;;;;;;;;4959282;29;20173;-82
2021/03/25 05:07:06;;;;;;;63.75;45.25;;;;;;;;;;4962262;28;20199;-82
2021/03/25 05:09:34;;;;;;;74.72;50.42;;;;;;;;;;4965194;29;20201;-82
2021/03/25 05:12:01;;;;;;;66.07;46.25;;;;;;;;;;4962067;28;20182;-81
2021/03/25 05:14:28;;;;;;;69.10;44.97;;;;;;;;;;4962047;28;20185;-81
2021/03/25 05:17:01;;;;;;;65.10;44.20;;;;;;;;;;4962972;28;20206;-82
2021/03/25 05:19:36;;;;;;;70.45;48.80;;;;;;;;;;4964167;29;20185;-82
2021/03/25 05:22:22;;;;;;;59.13;42.70;;;;;;;;;;4965983;29;20169;-83
2021/03/25 05:24:53;;;;;;;67.28;45.25;;;;;;;;;;4947175;29;20166;-82
2021/03/25 05:27:27;;;;;;;74.05;51.22;;;;;;;;;;4967154;28;20210;-82
2021/03/25 05:29:54;;;;;;;67.07;46.35;;;;;;;;;;4968508;29;20250;-83
2021/03/25 05:32:22;;;;;;;66.90;47.15;;;;;;;;;;4967503;29;20189;-83
2021/03/25 05:34:49;;;;;;;64.75;46.40;;;;;;;;;;4964092;29;20274;-84
2021/03/25 05:37:16;;;;;;;69.55;46.20;;;;;;;;;;4963446;28;20216;-83
2021/03/25 05:39:42;;;;;;;64.28;46.75;;;;;;;;;;4967913;29;20182;-82
2021/03/25 05:42:14;;;;;;;64.72;44.38;;;;;;;;;;4962434;29;20543;-83
2021/03/25 05:44:40;;;;;;;74.00;47.15;;;;;;;;;;4962427;28;20571;-82
2021/03/25 05:47:06;;;;;;;71.88;47.47;;;;;;;;;;4963301;28;20206;-83
2021/03/25 05:49:46;;;;;;;77.18;49.35;;;;;;;;;;4962881;28;20174;-82
2021/03/25 05:52:29;;;;;;;70.63;45.05;;;;;;;;;;4964125;29;20208;-82
2021/03/25 05:55:04;;;;;;;68.30;45.30;;;;;;;;;;4965544;28;20254;-82
2021/03/25 05:57:43;;;;;;;64.88;45.15;;;;;;;;;;4969029;28;20208;-83
2021/03/25 06:00:10;;;;;;;60.97;44.10;;;;;;;;;;4967424;29;20182;-83
2021/03/25 06:02:44;;;;;;;61.08;45.38;;;;;;;;;;4967824;29;20190;-83
2021/03/25 06:05:12;;;;;;;72.97;45.40;;;;;;;;;;4966505;29;20190;-84
2021/03/25 06:07:41;;;;;;;56.37;43.33;;;;;;;;;;4951540;29;20511;-83
2021/03/25 06:10:16;;;;;;;61.73;41.80;;;;;;;;;;4970053;29;20414;-84
2021/03/25 06:12:57;;;;;;;62.27;42.80;;;;;;;;;;4969371;29;20389;-83
2021/03/25 06:15:30;;;;;;;59.23;44.37;;;;;;;;;;4952176;29;20913;-84
2021/03/25 06:18:14;;;;;;;57.83;41.70;;;;;;;;;;4969140;28;20427;-84
2021/03/25 06:20:53;;;;;;;50.97;40.47;;;;;;;;;;4969613;29;20425;-84
2021/03/25 06:23:28;;;;;;;49.43;40.30;;;;;;;;;;4971716;29;20394;-83
2021/03/25 06:26:06;;;;;;;49.80;40.27;;;;;;;;;;4951517;29;20461;-85
2021/03/25 07:33:50;;;;;;;51.50;40.27;;;;;;;;;;4195350;23;20507;-84
2021/03/25 07:36:19;;;;;;;58.47;40.10;;;;;;;;;;4990580;28;20430;-84
2021/03/25 07:39:05;;;;;;;56.23;43.10;;;;;;;;;;5008079;28;20430;-83
2021/03/25 07:41:49;;;;;;;48.03;39.17;;;;;;;;;;5014735;28;20455;-83
2021/03/25 07:44:25;;;;;;;53.50;39.30;;;;;;;;;;5014899;28;20815;-84
2021/03/25 07:46:58;;;;;;;53.90;39.20;;;;;;;;;;5015299;28;20476;-84
2021/03/25 07:49:31;;;;;;;51.83;40.00;;;;;;;;;;5011022;28;20445;-83
2021/03/25 07:51:57;;;;;;;55.30;39.73;;;;;;;;;;5007350;28;20756;-81
2021/03/25 07:54:23;;;;;;;65.50;45.50;;;;;;;;;;5007559;28;20411;-83
2021/03/25 07:57:28;;;;;;;59.33;40.83;;;;;;;;;;5006496;28;20428;-83
2021/03/25 07:59:57;;;;;;;55.40;39.60;;;;;;;;;;4979154;28;20412;-82
2021/03/25 08:02:30;;;;;;;50.93;40.00;;;;;;;;;;5001556;28;20477;-83
2021/03/25 08:04:57;;;;;;;51.07;39.60;;;;;;;;;;5005119;28;20404;-85
2021/03/25 08:07:36;;;;;;;54.73;41.43;;;;;;;;;;5020848;28;20532;-84
2021/03/25 08:10:10;;;;;;;51.43;36.53;;;;;;;;;;5015360;28;20967;-83
2021/03/25 08:12:37;;;;;;;58.83;41.20;;;;;;;;;;5008118;28;20449;-83
2021/03/25 08:15:11;;;;;;;45.63;37.13;;;;;;;;;;5026494;28;20408;-84
2021/03/25 08:18:11;;;;;;;53.23;39.87;;;;;;;;;;5026150;28;20393;-83
2021/03/25 08:20:38;;;;;;;58.20;42.30;;;;;;;;;;4975434;28;20505;-84
2021/03/25 08:23:11;;;;;;;53.00;40.80;;;;;;;;;;5013228;28;20457;-83
2021/03/25 08:25:40;;;;;;;51.27;40.90;;;;;;;;;;5014709;28;20940;-85
2021/03/25 08:28:42;;;;;;;52.97;43.43;;;;;;;;;;5013123;28;20450;-84
2021/03/25 08:31:23;;;;;;;52.73;40.10;;;;;;;;;;4973087;28;20419;-85
2021/03/25 08:34:01;;;;;;;64.07;40.70;;;;;;;;;;5012683;28;20429;-85
2021/03/25 08:36:42;;;;;;;50.13;39.93;;;;;;;;;;5011433;28;20891;-85
2021/03/25 08:39:27;;;;;;;56.20;41.87;;;;;;;;;;5030021;28;20390;-84
2021/03/25 08:41:59;;;;;;;56.17;41.30;;;;;;;;;;5013896;28;20431;-84
2021/03/25 08:44:31;;;;;;;60.93;42.80;;;;;;;;;;5012398;28;20489;-85
2021/03/25 08:47:08;;;;;;;69.93;42.67;;;;;;;;;;5027409;28;20568;-83
2021/03/25 08:49:38;;;;;;;53.70;40.00;;;;;;;;;;5009092;28;20453;-86
2021/03/25 08:52:13;;;;;;;54.53;42.70;;;;;;;;;;5007728;28;20426;-84
2021/03/25 08:54:43;;;;;;;63.90;44.60;;;;;;;;;;5007056;28;20407;-83
2021/03/25 08:57:35;;;;;;;57.43;43.20;;;;;;;;;;5006302;28;20406;-84
2021/03/25 09:00:31;;;;;;;60.57;42.80;;;;;;;;;;5000756;28;20794;-83
2021/03/25 09:03:21;;;;;;;60.83;41.53;;;;;;;;;;5007385;28;20498;-84
2021/03/25 09:05:54;;;;;;;55.30;39.47;;;;;;;;;;4995128;28;20415;-84
2021/03/25 09:08:24;;;;;;;58.73;43.50;;;;;;;;;;5016932;28;20454;-82
2021/03/25 09:10:56;;;;;;;57.50;42.83;;;;;;;;;;5015411;28;20938;-83
2021/03/25 09:13:28;;;;;;;49.40;43.73;;;;;;;;;;5006767;28;21014;-84
2021/03/25 09:16:26;;;;;;;67.87;45.10;;;;;;;;;;5024186;28;20447;-84
2021/03/25 09:18:56;;;;;;;53.17;41.27;;;;;;;;;;5005707;28;20426;-85
2021/03/25 09:21:26;;;;;;;62.03;42.93;;;;;;;;;;5006120;28;20426;-84
2021/03/25 09:24:02;;;;;;;57.60;42.23;;;;;;;;;;5006149;28;20418;-84
2021/03/25 09:26:28;;;;;;;65.20;43.97;;;;;;;;;;5023329;28;20446;-84
2021/03/25 09:29:07;;;;;;;54.30;44.63;;;;;;;;;;5007170;28;20403;-83
2021/03/25 09:32:02;;;;;;;59.67;43.00;;;;;;;;;;5010736;28;20942;-85
2021/03/25 09:34:45;;;;;;;58.83;43.73;;;;;;;;;;4995717;28;20438;-84
2021/03/25 09:37:19;;;;;;;59.40;45.57;;;;;;;;;;5011808;28;20407;-83
2021/03/25 09:40:16;;;;;;;63.70;51.93;;;;;;;;;;5029260;28;20410;-83
2021/03/25 09:43:16;;;;;;;53.63;43.40;;;;;;;;;;5023741;28;20430;-86
2021/03/25 09:45:51;;;;;;;48.57;41.60;;;;;;;;;;4945515;28;20427;-86
2021/03/25 09:49:14;;;;;;;;;;;;;;;;;;;;;
2021/03/25 09:52:17;;;;;;;51.03;40.87;;;;;;;;;;4948175;29;20509;-84
2021/03/25 09:54:51;;;;;;;51.13;38.20;;;;;;;;;;4932415;29;20419;-85
2021/03/25 09:57:56;;;;;;;57.97;42.77;;;;;;;;;;4932840;29;20469;-85
2021/03/25 10:00:37;;;;;;;55.00;40.17;;;;;;;;;;4934882;29;20880;-85
2021/03/25 10:03:14;;;;;;;63.73;43.50;;;;;;;;;;4933589;29;20427;-84
2021/03/25 10:05:44;;;;;;;59.80;42.77;;;;;;;;;;4932308;29;20454;-84
2021/03/25 10:08:38;;;;;;;65.67;42.67;;;;;;;;;;4947452;29;20928;-84
2021/03/25 10:11:25;;;;;;;61.00;41.00;;;;;;;;;;4930104;29;20439;-83
2021/03/25 10:13:51;;;;;;;50.20;43.03;;;;;;;;;;4932442;29;20842;-83
2021/03/25 10:16:39;;;;;;;59.27;44.53;;;;;;;;;;4948565;29;20411;-83
2021/03/25 10:19:12;;;;;;;55.73;43.07;;;;;;;;;;4934431;29;20411;-84
2021/03/25 10:21:44;;;;;;;53.07;41.40;;;;;;;;;;4941549;29;20440;-85
2021/03/25 10:24:22;;;;;;;56.93;42.67;;;;;;;;;;4921105;29;20407;-84
2021/03/25 10:26:50;;;;;;;49.27;38.80;;;;;;;;;;4937869;29;20461;-84
2021/03/25 10:29:16;;;;;;;56.27;42.20;;;;;;;;;;5011631;28;20419;-83
2021/03/25 10:31:44;;;;;;;52.50;45.83;;;;;;;;;;5006874;28;20470;-83
2021/03/25 10:34:40;;;;;;;59.13;44.50;;;;;;;;;;4989068;28;20440;-84
2021/03/25 10:37:19;;;;;;;55.87;41.47;;;;;;;;;;4989142;28;20411;-85
2021/03/25 10:39:51;;;;;;;60.00;42.27;;;;;;;;;;4973241;28;20443;-84
2021/03/25 10:42:27;;;;;;;57.20;46.33;;;;;;;;;;4989699;28;20431;-84
2021/03/25 10:45:20;;;;;;;58.13;43.83;;;;;;;;;;4988241;28;20412;-83
2021/03/25 10:47:55;;;;;;;57.47;43.87;;;;;;;;;;4988469;28;20511;-83
2021/03/25 10:50:31;;;;;;;58.63;38.80;;;;;;;;;;4989844;28;20468;-83
2021/03/25 10:53:01;;;;;;;49.53;37.33;;;;;;;;;;4988262;28;20506;-84
2021/03/25 10:55:41;;;;;;;51.27;39.93;;;;;;;;;;4988453;28;20412;-85
2021/03/25 10:58:17;;;;;;;51.20;39.97;;;;;;;;;;4990012;28;20411;-84
2021/03/25 11:00:44;;;;;;;50.67;38.50;;;;;;;;;;4989641;28;20403;-84
2021/03/25 11:03:40;;;;;;;49.77;38.23;;;;;;;;;;4990111;28;20550;-84
2021/03/25 11:06:52;;;;;;;51.70;35.53;;;;;;;;;;4989455;28;20477;-85
2021/03/25 11:09:07;;;;;;;47.70;38.70;;;;;;;;;;4981551;28;20801;-84
2021/03/25 11:11:49;;;;;;;45.10;37.83;;;;;;;;;;4989319;28;20432;-85
2021/03/25 11:14:47;;;;;;;48.17;36.40;;;;;;;;;;4993080;28;20451;-85
2021/03/25 11:17:23;;;;;;;41.57;35.43;;;;;;;;;;4915849;29;20456;-85
2021/03/25 11:20:19;;;;;;;55.70;37.70;;;;;;;;;;4921184;29;20416;-85
2021/03/25 11:22:55;;;;;;;46.90;34.77;;;;;;;;;;4922868;28;20443;-85
2021/03/25 11:25:34;;;;;;;40.23;33.00;;;;;;;;;;4925266;28;20413;-86
2021/03/25 11:28:38;;;;;;;43.43;35.87;;;;;;;;;;4909903;28;20517;-85
2021/03/25 11:31:42;;;;;;;37.73;32.17;;;;;;;;;;4918545;29;20426;-85
2021/03/25 11:34:28;;;;;;;47.57;37.77;;;;;;;;;;4925806;28;20438;-83
2021/03/25 11:37:00;;;;;;;51.20;37.67;;;;;;;;;;4924524;28;20456;-84
2021/03/25 11:39:33;;;;;;;46.37;37.20;;;;;;;;;;4924166;28;20448;-83
2021/03/25 11:42:19;;;;;;;52.53;36.40;;;;;;;;;;4915420;29;20486;-84
2021/03/25 11:44:48;;;;;;;46.70;33.20;;;;;;;;;;4912522;29;20416;-85
2021/03/25 11:47:37;;;;;;;48.07;35.80;;;;;;;;;;4925429;28;20512;-81
2021/03/25 11:50:16;;;;;;;40.30;31.47;;;;;;;;;;4922441;29;20448;-84
2021/03/25 11:52:43;;;;;;;40.10;29.40;;;;;;;;;;4917220;28;20459;-84
2021/03/25 11:55:21;;;;;;;35.77;28.70;;;;;;;;;;4989131;28;20424;-85
2021/03/25 11:57:48;;;;;;;38.73;29.07;;;;;;;;;;4988024;28;20462;-83
2021/03/25 12:00:21;;;;;;;44.17;31.97;;;;;;;;;;4988418;28;20410;-84
2021/03/25 12:06:21;;;;;;;42.57;33.00;;;;;;;;;;5007150;28;20457;-84
2021/03/25 12:08:48;;;;;;;43.80;32.00;;;;;;;;;;4989075;28;20907;-84
2021/03/25 12:11:26;;;;;;;38.73;31.10;;;;;;;;;;4992020;28;20419;-83
2021/03/25 12:13:57;;;;;;;43.27;34.57;;;;;;;;;;4993324;28;20419;-85
2021/03/25 12:16:27;;;;;;;42.37;33.73;;;;;;;;;;4991663;28;20447;-85
2021/03/25 12:19:06;;;;;;;38.60;29.57;;;;;;;;;;5028811;28;20801;-84
2021/03/25 12:24:10;;;;;;;37.53;28.77;;;;;;;;;;4870793;26;20482;-85
2021/03/25 12:26:37;;;;;;;40.33;31.80;;;;;;;;;;5033112;28;20424;-85
2021/03/25 12:29:07;;;;;;;35.30;29.00;;;;;;;;;;5037303;28;20452;-84
2021/03/25 12:31:38;;;;;;;35.33;28.03;;;;;;;;;;5173579;23;20446;-84
2021/03/25 12:34:08;;;;;;;40.30;28.80;;;;;;;;;;4998777;28;20440;-85
2021/03/25 12:36:35;;;;;;;37.40;31.23;;;;;;;;;;4997667;28;20499;-85
2021/03/25 12:39:06;;;;;;;36.30;28.83;;;;;;;;;;4997558;28;20422;-85
2021/03/25 12:41:40;;;;;;;36.27;28.90;;;;;;;;;;4993276;28;20451;-85
2021/03/25 12:44:07;;;;;;;36.80;30.37;;;;;;;;;;4989701;28;20988;-85
2021/03/25 12:46:37;;;;;;;39.33;28.70;;;;;;;;;;4993712;28;20819;-85
2021/03/25 12:49:06;;;;;;;35.13;29.80;;;;;;;;;;4988563;28;20867;-85
2021/03/25 12:51:33;;;;;;;39.87;32.47;;;;;;;;;;4985782;28;20439;-84
2021/03/25 12:54:16;;;;;;;;;;;;;;;;;;;;;
2021/03/25 12:57:04;;;;;;;39.63;29.70;;;;;;;;;;5005579;28;20535;-85
2021/03/25 12:59:52;;;;;;;34.10;29.97;;;;;;;;;;4984137;28;20427;-84
2021/03/25 13:02:24;;;;;;;39.30;29.53;;;;;;;;;;4978640;28;20415;-85
2021/03/25 13:04:54;;;;;;;36.27;27.87;;;;;;;;;;4999542;28;20425;-83
2021/03/25 13:07:20;;;;;;;38.87;28.37;;;;;;;;;;4998934;28;20404;-83
2021/03/25 13:09:59;;;;;;;31.80;26.87;;;;;;;;;;5011513;28;20419;-85
2021/03/25 13:15:40;;;;;;;33.90;27.27;;;;;;;;;;4990798;28;20451;-85
2021/03/25 13:18:22;;;;;;;35.50;25.10;;;;;;;;;;4981416;28;20455;-85
2021/03/25 13:21:05;;;;;;;;;;;;;;;;;;;;;
2021/03/25 13:24:24;;;;;;;34.83;26.07;;;;;;;;;;4977249;29;20406;-85
2021/03/25 13:27:21;;;;;;;31.43;26.47;;;;;;;;;;4966295;29;20532;-85
2021/03/25 13:33:06;;;;;;;30.93;26.80;;;;;;;;;;5030871;23;21050;-83
2021/03/25 13:35:56;;;;;;;34.00;27.83;;;;;;;;;;5010943;28;20419;-82
2021/03/25 13:38:33;;;;;;;33.43;29.90;;;;;;;;;;4999587;28;20442;-83
2021/03/25 13:41:23;;;;;;;41.53;31.87;;;;;;;;;;4995895;28;20479;-83
2021/03/25 13:43:59;;;;;;;35.07;30.00;;;;;;;;;;5027362;28;20434;-83
2021/03/25 13:46:39;;;;;;;33.50;27.23;;;;;;;;;;5028348;28;20416;-83
2021/03/25 13:49:15;;;;;;;34.63;28.80;;;;;;;;;;5025879;28;20462;-84
2021/03/25 13:51:42;;;;;;;36.27;28.20;;;;;;;;;;5027028;28;20481;-83
2021/03/25 13:54:17;;;;;;;40.83;34.10;;;;;;;;;;5010423;28;20429;-83
2021/03/25 13:56:47;;;;;;;33.23;28.00;;;;;;;;;;5027593;28;20901;-83
2021/03/25 13:59:15;;;;;;;38.37;29.77;;;;;;;;;;5009688;28;20422;-84
2021/03/25 14:02:14;;;;;;;34.03;28.40;;;;;;;;;;5026788;28;20910;-84
2021/03/25 14:04:43;;;;;;;37.77;29.67;;;;;;;;;;5026380;28;20440;-83
2021/03/25 14:07:10;;;;;;;39.93;29.50;;;;;;;;;;5025960;28;20503;-84
2021/03/25 14:09:40;;;;;;;32.43;26.60;;;;;;;;;;5027445;28;20418;-83
2021/03/25 14:12:07;;;;;;;32.10;27.60;;;;;;;;;;5028195;28;20474;-83
2021/03/25 14:14:36;;;;;;;32.90;26.97;;;;;;;;;;5025977;28;20435;-82
2021/03/25 14:17:03;;;;;;;32.97;27.03;;;;;;;;;;5026395;28;20454;-83
2021/03/25 14:19:32;;;;;;;31.27;26.13;;;;;;;;;;5025749;28;20459;-83
2021/03/25 14:21:58;;;;;;;45.50;29.87;;;;;;;;;;5025606;28;20425;-84
2021/03/25 14:24:28;;;;;;;33.53;26.80;;;;;;;;;;5025502;28;20436;-84
2021/03/25 14:26:55;;;;;;;38.10;29.07;;;;;;;;;;5025635;28;20760;-83
2021/03/25 14:29:21;;;;;;;31.77;27.20;;;;;;;;;;5026728;28;20962;-83
2021/03/25 14:31:48;;;;;;;31.53;27.10;;;;;;;;;;5029655;28;20541;-82
2021/03/25 14:34:14;;;;;;;39.27;30.40;;;;;;;;;;5034944;28;20461;-83
2021/03/25 14:36:43;;;;;;;37.13;28.67;;;;;;;;;;5033882;28;20446;-81
2021/03/25 14:39:09;;;;;;;44.50;28.10;;;;;;;;;;5033271;28;20407;-84
2021/03/25 14:41:36;;;;;;;34.77;28.10;;;;;;;;;;5018051;28;20410;-83
2021/03/25 14:44:02;;;;;;;37.20;30.50;;;;;;;;;;5032853;28;20461;-82
2021/03/25 14:46:31;;;;;;;37.60;29.57;;;;;;;;;;5033186;28;20415;-83
2021/03/25 14:48:58;;;;;;;34.47;28.00;;;;;;;;;;5028498;28;20429;-83
2021/03/25 14:51:27;;;;;;;39.00;28.13;;;;;;;;;;5025068;28;20422;-83
2021/03/25 14:53:54;;;;;;;33.77;27.73;;;;;;;;;;5026475;28;20449;-84
2021/03/25 14:56:20;;;;;;;39.93;29.47;;;;;;;;;;5023523;28;20417;-84
2021/03/25 14:58:46;;;;;;;39.73;30.87;;;;;;;;;;5025569;28;20512;-84
2021/03/25 15:01:12;;;;;;;39.20;30.77;;;;;;;;;;5025774;28;20501;-84
2021/03/25 15:03:38;;;;;;;43.30;32.07;;;;;;;;;;5025204;28;20437;-83
2021/03/25 15:06:05;;;;;;;37.77;30.00;;;;;;;;;;5024824;28;20417;-83
2021/03/25 15:08:32;;;;;;;42.40;33.73;;;;;;;;;;5024611;28;20485;-85
2021/03/25 15:11:00;;;;;;;41.23;30.03;;;;;;;;;;5023491;28;20433;-84
2021/03/25 15:13:27;;;;;;;38.80;27.07;;;;;;;;;;5025362;28;20423;-83
2021/03/25 15:15:53;;;;;;;37.03;30.40;;;;;;;;;;5024790;28;20428;-84
2021/03/25 15:18:20;;;;;;;45.27;31.30;;;;;;;;;;5024808;28;20529;-85
2021/03/25 15:20:47;;;;;;;32.57;28.67;;;;;;;;;;5024781;28;20504;-84
2021/03/25 15:23:25;;;;;;;36.43;28.43;;;;;;;;;;5007617;28;20470;-84
2021/03/25 15:25:52;;;;;;;37.87;29.30;;;;;;;;;;5024100;28;20909;-84
2021/03/25 15:28:19;;;;;;;38.53;28.60;;;;;;;;;;5030659;28;20480;-84
2021/03/25 15:30:46;;;;;;;36.90;31.87;;;;;;;;;;5028686;28;20418;-84
2021/03/25 15:33:12;;;;;;;40.87;29.73;;;;;;;;;;5026310;28;20510;-85
2021/03/25 15:35:40;;;;;;;38.33;30.53;;;;;;;;;;5024108;28;20410;-85
2021/03/25 15:38:15;;;;;;;36.00;31.37;;;;;;;;;;5025772;28;20456;-83
2021/03/25 15:40:48;;;;;;;40.70;28.60;;;;;;;;;;5026513;28;20414;-85
2021/03/25 15:43:15;;;;;;;34.40;26.77;;;;;;;;;;5023860;28;20435;-83
2021/03/25 15:45:42;;;;;;;36.50;30.60;;;;;;;;;;5025078;28;20467;-84
2021/03/25 15:48:10;;;;;;;36.30;31.80;;;;;;;;;;5025034;28;20440;-85
2021/03/25 15:50:37;;;;;;;39.87;30.40;;;;;;;;;;5025593;28;20426;-84
2021/03/25 15:53:04;;;;;;;35.37;31.10;;;;;;;;;;5022971;28;20476;-84
2021/03/25 15:55:31;;;;;;;37.87;30.77;;;;;;;;;;5023833;28;20433;-83
2021/03/25 15:57:59;;;;;;;45.97;36.60;;;;;;;;;;5025183;28;20460;-84
2021/03/25 16:00:25;;;;;;;42.10;32.70;;;;;;;;;;5025875;28;20417;-83
2021/03/25 16:02:52;;;;;;;49.97;35.20;;;;;;;;;;5025513;28;20434;-83
2021/03/25 16:05:20;;;;;;;36.13;30.97;;;;;;;;;;5025243;28;20436;-85
2021/03/25 16:07:46;;;;;;;47.87;34.83;;;;;;;;;;5028428;28;20422;-84
2021/03/25 16:10:13;;;;;;;42.23;35.00;;;;;;;;;;5024704;28;20459;-84
2021/03/25 16:12:39;;;;;;;39.30;35.03;;;;;;;;;;5024840;28;20999;-84
2021/03/25 16:15:07;;;;;;;41.10;33.97;;;;;;;;;;5023634;28;20605;-83
2021/03/25 16:17:33;;;;;;;43.37;32.57;;;;;;;;;;5026047;28;20794;-85
2021/03/25 16:20:00;;;;;;;44.30;36.07;;;;;;;;;;5025161;28;20428;-83
2021/03/25 16:22:26;;;;;;;42.83;34.57;;;;;;;;;;5025566;28;20741;-84
2021/03/25 16:24:53;;;;;;;47.10;33.60;;;;;;;;;;5027927;28;20516;-84
2021/03/25 16:27:19;;;;;;;46.67;35.80;;;;;;;;;;5026911;28;20416;-84
2021/03/25 16:29:46;;;;;;;44.47;35.70;;;;;;;;;;5029363;28;20420;-83
2021/03/25 16:32:12;;;;;;;49.10;34.73;;;;;;;;;;5029910;28;20520;-84
2021/03/25 16:34:38;;;;;;;47.60;36.07;;;;;;;;;;5008994;28;20554;-84
2021/03/25 16:37:06;;;;;;;42.77;35.83;;;;;;;;;;5024545;28;20482;-84
2021/03/25 16:39:32;;;;;;;40.07;31.20;;;;;;;;;;5022860;28;20414;-83
2021/03/25 16:41:58;;;;;;;39.47;31.27;;;;;;;;;;5024429;28;20434;-84
2021/03/25 16:44:26;;;;;;;48.00;37.53;;;;;;;;;;5025264;28;20815;-83
2021/03/25 16:46:53;;;;;;;47.17;33.30;;;;;;;;;;5028641;28;20474;-84